createdAt,value
2022-07-30T00:01:52.904Z,100.00
2022-07-30T00:04:20.472Z,100.00
2022-07-30T00:06:47.482Z,100.00
2022-07-30T00:09:15.175Z,100.00
2022-07-30T00:11:42.113Z,100.00
2022-07-30T00:14:09.215Z,100.00
2022-07-30T00:16:36.358Z,100.00
2022-07-30T00:19:03.392Z,100.00
2022-07-30T00:21:35.724Z,100.00
2022-07-30T00:24:04.534Z,100.00
2022-07-30T00:26:31.572Z,100.00
2022-07-30T00:28:58.495Z,100.00
2022-07-30T00:31:25.513Z,100.00
2022-07-30T00:33:52.332Z,100.00
2022-07-30T00:36:19.089Z,100.00
2022-07-30T00:38:46.151Z,100.00
2022-07-30T00:41:13.239Z,100.00
2022-07-30T00:43:43.471Z,100.00
2022-07-30T00:46:10.485Z,100.00
2022-07-30T00:48:37.216Z,100.00
2022-07-30T00:51:04.137Z,100.00
2022-07-30T00:53:30.923Z,100.00
2022-07-30T00:55:57.813Z,100.00
2022-07-30T00:58:25.706Z,100.00
2022-07-30T01:00:53.687Z,100.00
2022-07-30T01:03:20.472Z,100.00
2022-07-30T01:05:47.557Z,100.00
2022-07-30T01:08:14.564Z,100.00
2022-07-30T01:10:41.378Z,100.00
2022-07-30T01:13:08.566Z,100.00
2022-07-30T01:15:36.061Z,100.00
2022-07-30T01:18:05.761Z,100.00
2022-07-30T01:20:38.634Z,100.00
2022-07-30T01:23:15.410Z,100.00
2022-07-30T01:26:05.042Z,100.00
2022-07-30T01:28:41.636Z,100.00
2022-07-30T01:31:11.226Z,100.00
2022-07-30T01:33:41.183Z,100.00
2022-07-30T01:36:10.113Z,100.00
2022-07-30T01:38:37.466Z,100.00
2022-07-30T01:41:06.655Z,100.00
2022-07-30T01:43:35.929Z,100.00
2022-07-30T01:46:03.908Z,100.00
2022-07-30T01:48:35.419Z,100.00
2022-07-30T01:51:04.807Z,100.00
2022-07-30T01:53:37.224Z,100.00
2022-07-30T01:56:04.533Z,100.00
2022-07-30T01:58:36.321Z,100.00
2022-07-30T02:01:11.990Z,100.00
2022-07-30T02:03:39.692Z,100.00
2022-07-30T02:06:22.856Z,100.00
2022-07-30T02:08:55.680Z,100.00
2022-07-30T02:11:43.787Z,100.00
2022-07-30T02:14:22.994Z,100.00
2022-07-30T02:16:55.068Z,100.00
2022-07-30T02:19:25.345Z,100.00
2022-07-30T02:22:06.801Z,100.00
2022-07-30T02:24:37.892Z,100.00
2022-07-30T02:27:10.578Z,100.00
2022-07-30T02:29:41.109Z,100.00
2022-07-30T02:32:11.829Z,100.00
2022-07-30T02:34:41.075Z,100.00
2022-07-30T02:37:09.214Z,100.00
2022-07-30T02:39:38.565Z,100.00
2022-07-30T02:42:06.554Z,100.00
2022-07-30T02:44:34.198Z,100.00
2022-07-30T02:47:04.702Z,100.00
2022-07-30T02:49:52.713Z,100.00
2022-07-30T02:52:19.997Z,100.00
2022-07-30T02:54:48.410Z,100.00
2022-07-30T02:57:16.121Z,100.00
2022-07-30T02:59:44.260Z,100.00
2022-07-30T03:02:14.651Z,100.00
2022-07-30T03:04:42.682Z,100.00
2022-07-30T03:07:10.938Z,100.00
2022-07-30T03:09:52.453Z,100.00
2022-07-30T03:12:22.153Z,100.00
2022-07-30T03:14:48.997Z,100.00
2022-07-30T03:17:17.597Z,100.00
2022-07-30T03:19:45.769Z,100.00
2022-07-30T03:22:13.983Z,100.00
2022-07-30T03:24:43.667Z,100.00
2022-07-30T03:27:13.924Z,100.00
2022-07-30T03:29:44.357Z,100.00
2022-07-30T03:32:13.556Z,100.00
2022-07-30T03:34:42.167Z,100.00
2022-07-30T03:37:11.029Z,100.00
2022-07-30T03:39:39.252Z,100.00
2022-07-30T03:42:07.899Z,100.00
2022-07-30T03:44:35.439Z,100.00
2022-07-30T03:47:05.853Z,100.00
2022-07-30T03:49:38.479Z,100.00
2022-07-30T03:52:09.484Z,100.00
2022-07-30T03:54:39.815Z,100.00
2022-07-30T03:57:25.901Z,100.00
2022-07-30T03:59:52.834Z,100.00
2022-07-30T04:02:21.297Z,100.00
2022-07-30T04:05:14.104Z,100.00
2022-07-30T04:07:44.766Z,100.00
2022-07-30T04:10:14.245Z,100.00
2022-07-30T04:13:13.229Z,100.00
2022-07-30T04:16:36.841Z,100.00
2022-07-30T04:18:53.765Z,100.00
2022-07-30T04:21:22.366Z,100.00
2022-07-30T04:24:03.893Z,100.00
2022-07-30T04:26:35.065Z,100.00
2022-07-30T04:29:06.186Z,100.00
2022-07-30T04:31:39.880Z,100.00
2022-07-30T04:34:27.529Z,100.00
2022-07-30T04:36:54.736Z,100.00
2022-07-30T04:39:21.513Z,100.00
2022-07-30T04:41:49.735Z,100.00
2022-07-30T04:44:45.907Z,100.00
2022-07-30T04:47:35.795Z,100.00
2022-07-30T04:50:27.885Z,100.00
2022-07-30T04:52:56.557Z,100.00
2022-07-30T04:55:29.155Z,100.00
2022-07-30T04:57:57.448Z,100.00
2022-07-30T05:00:25.240Z,100.00
2022-07-30T05:02:52.780Z,100.00
2022-07-30T05:05:21.274Z,100.00
2022-07-30T05:07:48.795Z,100.00
2022-07-30T05:10:15.853Z,100.00
2022-07-30T05:12:43.703Z,100.00
2022-07-30T05:15:11.583Z,100.00
2022-07-30T05:17:41.434Z,100.00
2022-07-30T05:20:09.943Z,100.00
2022-07-30T05:22:56.481Z,100.00
2022-07-30T05:25:24.281Z,100.00
2022-07-30T05:27:53.952Z,100.00
2022-07-30T05:30:24.020Z,100.00
2022-07-30T05:32:55.989Z,100.00
2022-07-30T05:35:23.602Z,100.00
2022-07-30T05:37:50.365Z,100.00
2022-07-30T05:40:19.857Z,100.00
2022-07-30T05:43:08.679Z,100.00
2022-07-30T05:45:37.757Z,100.00
2022-07-30T05:48:05.065Z,100.00
2022-07-30T05:50:32.038Z,100.00
2022-07-30T05:52:58.802Z,100.00
2022-07-30T05:55:51.620Z,100.00
2022-07-30T05:58:38.357Z,100.00
2022-07-30T06:01:05.622Z,100.00
2022-07-30T06:03:33.922Z,95.98
2022-07-30T06:06:26.581Z,73.07
2022-07-30T06:08:53.723Z,62.95
2022-07-30T06:11:21.166Z,57.83
2022-07-30T06:13:48.446Z,53.86
2022-07-30T06:16:15.468Z,53.14
2022-07-30T06:18:42.348Z,52.18
2022-07-30T06:21:17.425Z,58.29
2022-07-30T06:24:04.344Z,60.20
2022-07-30T06:26:44.282Z,54.40
2022-07-30T06:29:11.842Z,51.48
2022-07-30T06:31:41.621Z,50.34
2022-07-30T06:34:11.051Z,48.70
2022-07-30T06:36:41.372Z,46.45
2022-07-30T06:39:56.431Z,46.38
2022-07-30T06:42:29.082Z,44.99
2022-07-30T06:45:15.679Z,44.53
2022-07-30T06:48:08.586Z,45.66
2022-07-30T06:50:36.970Z,48.80
2022-07-30T06:53:04.495Z,48.28
2022-07-30T06:55:51.153Z,52.55
2022-07-30T06:58:25.658Z,51.69
2022-07-30T07:01:18.828Z,52.07
2022-07-30T07:03:45.680Z,53.91
2022-07-30T07:06:12.360Z,52.93
2022-07-30T07:08:40.594Z,51.94
2022-07-30T07:11:09.575Z,52.22
2022-07-30T07:13:49.137Z,58.34
2022-07-30T07:16:50.236Z,61.03
2022-07-30T07:20:01.254Z,72.71
2022-07-30T07:22:35.086Z,68.39
2022-07-30T07:25:02.186Z,68.73
2022-07-30T07:27:34.464Z,77.25
2022-07-30T07:30:04.995Z,65.58
2022-07-30T07:32:36.089Z,64.40
2022-07-30T07:35:03.876Z,65.97
2022-07-30T07:37:30.996Z,62.76
2022-07-30T07:39:57.778Z,61.83
2022-07-30T07:42:26.089Z,60.71
2022-07-30T07:44:53.436Z,63.33
2022-07-30T07:47:20.283Z,61.17
2022-07-30T07:50:02.903Z,54.55
2022-07-30T07:52:31.010Z,63.75
2022-07-30T07:54:57.957Z,62.21
2022-07-30T08:00:23.779Z,61.71
2022-07-30T08:05:58.209Z,56.62
2022-07-30T08:09:08.291Z,53.08
2022-07-30T08:12:00.380Z,52.67
2022-07-30T08:14:56.192Z,52.37
2022-07-30T08:17:42.529Z,49.95
2022-07-30T08:20:23.025Z,50.83
2022-07-30T08:22:51.051Z,52.53
2022-07-30T08:25:22.132Z,53.77
2022-07-30T08:27:52.673Z,52.68
2022-07-30T08:30:20.944Z,52.19
2022-07-30T08:32:50.232Z,53.28
2022-07-30T08:35:20.528Z,52.34
2022-07-30T08:37:48.599Z,47.49
2022-07-30T08:40:19.559Z,45.27
2022-07-30T08:43:03.955Z,44.92
2022-07-30T08:45:38.674Z,44.42
2022-07-30T08:48:26.717Z,45.81
2022-07-30T08:50:55.953Z,44.71
2022-07-30T08:53:56.442Z,45.51
2022-07-30T08:56:24.959Z,45.85
2022-07-30T08:58:52.210Z,45.05
2022-07-30T09:01:19.692Z,44.18
2022-07-30T09:03:50.759Z,44.19
2022-07-30T09:06:18.462Z,45.22
2022-07-30T09:08:46.142Z,44.83
2022-07-30T09:11:13.402Z,47.15
2022-07-30T09:13:50.752Z,46.10
2022-07-30T09:16:27.982Z,47.10
2022-07-30T09:18:57.866Z,47.52
2022-07-30T09:21:26.772Z,47.58
2022-07-30T09:24:10.065Z,46.36
2022-07-30T09:27:07.799Z,44.82
2022-07-30T09:30:01.576Z,44.34
2022-07-30T09:32:58.843Z,44.23
2022-07-30T09:35:25.842Z,43.66
2022-07-30T09:38:14.212Z,43.20
2022-07-30T09:41:08.054Z,42.74
2022-07-30T09:43:52.126Z,41.05
2022-07-30T09:46:26.025Z,41.02
2022-07-30T09:48:53.532Z,41.09
2022-07-30T09:51:56.206Z,40.34
2022-07-30T09:54:51.383Z,40.59
2022-07-30T09:57:27.132Z,41.16
2022-07-30T10:00:29.996Z,42.08
2022-07-30T10:03:34.252Z,41.63
2022-07-30T10:06:41.962Z,43.32
2022-07-30T10:09:30.516Z,43.06
2022-07-30T10:12:04.144Z,42.41
2022-07-30T10:14:42.543Z,42.18
2022-07-30T10:17:14.725Z,41.47
2022-07-30T10:19:47.262Z,42.01
2022-07-30T10:22:40.465Z,41.65
2022-07-30T10:25:48.859Z,41.09
2022-07-30T10:28:39.593Z,42.63
2022-07-30T10:31:46.416Z,40.84
2022-07-30T10:33:57.821Z,41.17
2022-07-30T10:36:26.315Z,41.42
2022-07-30T10:38:54.437Z,40.27
2022-07-30T10:41:43.333Z,39.65
2022-07-30T10:45:17.623Z,40.47
2022-07-30T10:47:54.351Z,40.17
2022-07-30T10:50:32.416Z,40.96
2022-07-30T10:53:03.041Z,39.37
2022-07-30T10:55:37.615Z,40.33
2022-07-30T10:58:18.046Z,40.40
2022-07-30T11:00:57.317Z,40.86
2022-07-30T11:06:24.267Z,40.37
2022-07-30T11:08:57.222Z,39.08
2022-07-30T11:11:59.470Z,39.78
2022-07-30T11:14:13.175Z,39.10
2022-07-30T11:16:43.228Z,37.93
2022-07-30T11:19:55.316Z,39.45
2022-07-30T11:22:25.830Z,39.36
2022-07-30T11:24:53.578Z,38.78
2022-07-30T11:27:41.457Z,37.73
2022-07-30T11:30:29.102Z,38.07
2022-07-30T11:33:07.209Z,37.22
2022-07-30T11:36:05.761Z,37.95
2022-07-30T11:38:58.969Z,37.22
2022-07-30T11:41:32.851Z,38.43
2022-07-30T11:44:29.131Z,37.66
2022-07-30T11:46:58.187Z,37.50
2022-07-30T11:50:07.754Z,38.18
2022-07-30T11:52:35.062Z,37.81
2022-07-30T11:55:05.623Z,37.62
2022-07-30T11:57:43.079Z,37.82
2022-07-30T12:00:10.601Z,37.50
2022-07-30T12:03:02.450Z,38.21
2022-07-30T12:05:34.589Z,37.14
2022-07-30T12:08:07.221Z,37.80
2022-07-30T12:10:39.904Z,37.86
2022-07-30T12:13:16.573Z,37.74
2022-07-30T12:15:47.416Z,37.61
2022-07-30T12:18:26.751Z,37.46
2022-07-30T12:20:59.362Z,36.70
2022-07-30T12:23:28.377Z,37.19
2022-07-30T12:26:01.109Z,36.67
2022-07-30T12:28:31.188Z,36.06
2022-07-30T12:31:04.644Z,36.76
2022-07-30T12:33:32.453Z,37.47
2022-07-30T12:36:00.986Z,37.99
2022-07-30T12:38:51.389Z,37.87
2022-07-30T12:41:19.708Z,37.03
2022-07-30T12:44:03.909Z,37.06
2022-07-30T12:46:38.504Z,37.35
2022-07-30T12:49:08.226Z,36.33
2022-07-30T12:52:00.105Z,37.68
2022-07-30T12:54:32.512Z,38.40
2022-07-30T12:57:07.748Z,39.01
2022-07-30T12:59:35.954Z,38.04
2022-07-30T13:02:03.738Z,39.16
2022-07-30T13:04:36.087Z,38.62
2022-07-30T13:07:16.189Z,38.65
2022-07-30T13:09:46.076Z,37.45
2022-07-30T13:12:15.671Z,38.05
2022-07-30T13:14:42.613Z,37.77
2022-07-30T13:17:10.904Z,38.25
2022-07-30T13:19:46.087Z,37.69
2022-07-30T13:22:13.825Z,37.33
2022-07-30T13:24:41.096Z,37.80
2022-07-30T13:27:08.953Z,37.60
2022-07-30T13:29:35.800Z,38.28
2022-07-30T13:32:02.931Z,38.25
2022-07-30T13:34:34.807Z,37.67
2022-07-30T13:37:06.161Z,39.45
2022-07-30T13:39:33.133Z,38.84
2022-07-30T13:41:59.937Z,39.05
2022-07-30T13:44:29.080Z,38.64
2022-07-30T13:46:59.996Z,38.05
2022-07-30T13:49:29.806Z,38.31
2022-07-30T13:52:00.159Z,37.96
2022-07-30T13:54:27.330Z,38.77
2022-07-30T13:56:57.307Z,38.89
2022-07-30T13:59:24.200Z,39.34
2022-07-30T14:01:51.600Z,39.25
2022-07-30T14:04:18.997Z,38.65
2022-07-30T14:06:46.249Z,37.72
2022-07-30T14:09:13.954Z,37.84
2022-07-30T14:11:40.950Z,36.96
2022-07-30T14:14:08.049Z,38.01
2022-07-30T14:16:45.045Z,38.47
2022-07-30T14:19:23.661Z,38.75
2022-07-30T14:21:53.259Z,37.87
2022-07-30T14:24:30.847Z,37.46
2022-07-30T14:27:01.434Z,38.82
2022-07-30T14:29:30.352Z,39.14
2022-07-30T14:31:59.170Z,37.38
2022-07-30T14:34:33.714Z,38.45
2022-07-30T14:37:03.538Z,37.58
2022-07-30T14:39:33.693Z,36.87
2022-07-30T14:42:01.198Z,37.21
2022-07-30T14:44:35.232Z,37.69
2022-07-30T14:47:03.432Z,36.85
2022-07-30T14:49:34.327Z,36.83
2022-07-30T14:52:02.955Z,36.67
2022-07-30T14:54:34.269Z,36.84
2022-07-30T14:57:03.473Z,36.94
2022-07-30T14:59:31.324Z,35.98
2022-07-30T15:01:58.749Z,36.44
2022-07-30T15:04:26.153Z,36.72
2022-07-30T15:06:53.213Z,37.51
2022-07-30T15:09:23.722Z,36.94
2022-07-30T15:12:08.902Z,36.43
2022-07-30T15:14:40.412Z,36.60
2022-07-30T15:17:08.711Z,36.83
2022-07-30T15:19:50.048Z,36.63
2022-07-30T15:22:19.931Z,37.60
2022-07-30T15:24:47.672Z,36.68
2022-07-30T15:27:16.994Z,36.93
2022-07-30T15:29:44.945Z,37.94
2022-07-30T15:32:17.703Z,37.22
2022-07-30T15:34:45.499Z,36.57
2022-07-30T15:37:13.753Z,36.74
2022-07-30T15:39:41.256Z,35.87
2022-07-30T15:42:08.547Z,36.32
2022-07-30T15:44:35.589Z,36.52
2022-07-30T15:47:13.130Z,38.72
2022-07-30T15:49:52.205Z,36.65
2022-07-30T15:52:19.334Z,36.94
2022-07-30T15:54:50.075Z,36.21
2022-07-30T15:57:17.316Z,36.76
2022-07-30T15:59:47.429Z,36.38
2022-07-30T16:02:23.924Z,36.49
2022-07-30T16:05:51.509Z,36.75
2022-07-30T16:08:07.005Z,37.27
2022-07-30T16:10:49.413Z,37.03
2022-07-30T16:13:29.576Z,37.05
2022-07-30T16:15:57.040Z,36.43
2022-07-30T16:18:38.664Z,36.11
2022-07-30T16:21:20.432Z,37.18
2022-07-30T16:24:01.041Z,37.06
2022-07-30T16:26:38.470Z,37.30
2022-07-30T16:29:16.846Z,36.57
2022-07-30T16:31:44.726Z,36.54
2022-07-30T16:34:23.096Z,37.44
2022-07-30T16:36:58.668Z,36.93
2022-07-30T16:39:26.508Z,37.36
2022-07-30T16:41:54.114Z,36.75
2022-07-30T16:44:21.826Z,37.12
2022-07-30T16:46:52.197Z,36.67
2022-07-30T16:49:19.686Z,36.99
2022-07-30T16:51:50.111Z,37.56
2022-07-30T16:54:20.148Z,36.61
2022-07-30T16:57:00.901Z,37.13
2022-07-30T16:59:38.078Z,37.21
2022-07-30T17:02:05.281Z,36.95
2022-07-30T17:04:34.828Z,36.53
2022-07-30T17:07:01.850Z,36.60
2022-07-30T17:09:31.918Z,36.55
2022-07-30T17:12:09.629Z,36.25
2022-07-30T17:14:42.518Z,36.15
2022-07-30T17:17:14.891Z,36.85
2022-07-30T17:19:43.272Z,37.21
2022-07-30T17:22:11.284Z,37.00
2022-07-30T17:24:40.705Z,36.87
2022-07-30T17:27:15.755Z,36.82
2022-07-30T17:29:51.997Z,37.21
2022-07-30T17:32:24.060Z,37.17
2022-07-30T17:34:51.781Z,38.19
2022-07-30T17:37:19.141Z,37.51
2022-07-30T17:40:28.416Z,37.09
2022-07-30T17:42:35.799Z,37.75
2022-07-30T17:45:07.772Z,37.05
2022-07-30T17:47:49.315Z,37.21
2022-07-30T17:50:17.597Z,37.86
2022-07-30T17:52:45.030Z,37.48
2022-07-30T17:55:14.243Z,37.85
2022-07-30T17:57:41.973Z,37.42
2022-07-30T18:00:10.345Z,37.31
2022-07-30T18:02:37.517Z,37.73
2022-07-30T18:05:12.283Z,37.14
2022-07-30T18:07:39.189Z,37.31
2022-07-30T18:10:08.069Z,37.25
2022-07-30T18:12:38.309Z,37.83
2022-07-30T18:15:06.720Z,38.33
2022-07-30T18:17:33.511Z,38.11
2022-07-30T18:20:03.282Z,37.80
2022-07-30T18:22:32.090Z,38.42
2022-07-30T18:25:01.245Z,39.08
2022-07-30T18:27:28.138Z,39.92
2022-07-30T18:29:55.225Z,39.54
2022-07-30T18:32:23.567Z,39.54
2022-07-30T18:34:52.794Z,39.83
2022-07-30T18:37:19.649Z,39.68
2022-07-30T18:39:46.462Z,40.06
2022-07-30T18:42:13.573Z,40.42
2022-07-30T18:44:40.327Z,39.65
2022-07-30T18:47:07.226Z,40.83
2022-07-30T18:49:37.022Z,41.40
2022-07-30T18:52:05.235Z,40.76
2022-07-30T18:54:32.262Z,41.32
2022-07-30T18:56:59.174Z,41.73
2022-07-30T18:59:28.524Z,41.21
2022-07-30T19:01:55.525Z,42.12
2022-07-30T19:04:24.117Z,42.61
2022-07-30T19:06:52.484Z,42.53
2022-07-30T19:09:19.881Z,42.65
2022-07-30T19:11:49.225Z,42.64
2022-07-30T19:14:17.250Z,42.16
2022-07-30T19:16:44.589Z,42.54
2022-07-30T19:19:14.945Z,43.05
2022-07-30T19:21:42.054Z,42.69
2022-07-30T19:24:10.093Z,42.62
2022-07-30T19:26:39.823Z,43.43
2022-07-30T19:29:10.465Z,43.14
2022-07-30T19:31:37.342Z,43.46
2022-07-30T19:34:10.779Z,43.52
2022-07-30T19:36:38.105Z,43.48
2022-07-30T19:39:07.435Z,44.23
2022-07-30T19:41:40.779Z,43.67
2022-07-30T19:44:09.094Z,44.21
2022-07-30T19:46:36.603Z,44.39
2022-07-30T19:49:04.026Z,44.65
2022-07-30T19:52:07.258Z,44.73
2022-07-30T19:54:20.345Z,45.39
2022-07-30T19:56:48.491Z,45.28
2022-07-30T19:59:15.635Z,45.96
2022-07-30T20:01:43.020Z,46.47
2022-07-30T20:04:11.154Z,47.26
2022-07-30T20:06:41.110Z,46.92
2022-07-30T20:09:15.101Z,46.98
2022-07-30T20:11:43.672Z,47.24
2022-07-30T20:14:10.505Z,46.87
2022-07-30T20:16:39.918Z,47.19
2022-07-30T20:19:10.377Z,47.46
2022-07-30T20:21:56.111Z,49.32
2022-07-30T20:24:27.533Z,49.48
2022-07-30T20:26:56.347Z,51.17
2022-07-30T20:29:23.216Z,49.85
2022-07-30T20:31:51.266Z,50.97
2022-07-30T20:34:26.026Z,51.37
2022-07-30T20:36:56.404Z,50.75
2022-07-30T20:39:26.250Z,50.43
2022-07-30T20:42:07.789Z,49.59
2022-07-30T20:44:36.565Z,50.15
2022-07-30T20:47:08.332Z,50.55
2022-07-30T20:49:35.967Z,50.54
2022-07-30T20:52:03.585Z,50.56
2022-07-30T20:54:32.430Z,51.09
2022-07-30T20:57:00.065Z,50.43
2022-07-30T20:59:27.537Z,49.20
2022-07-30T21:01:55.754Z,49.90
2022-07-30T21:04:25.446Z,49.62
2022-07-30T21:06:53.026Z,51.61
2022-07-30T21:09:22.944Z,52.97
2022-07-30T21:11:54.389Z,52.83
2022-07-30T21:14:21.966Z,52.31
2022-07-30T21:16:56.008Z,53.14
2022-07-30T21:19:23.677Z,52.55
2022-07-30T21:21:53.348Z,52.42
2022-07-30T21:24:22.493Z,52.31
2022-07-30T21:26:54.790Z,52.12
2022-07-30T21:29:22.669Z,52.28
2022-07-30T21:32:01.335Z,51.18
2022-07-30T21:34:35.976Z,50.91
2022-07-30T21:37:15.521Z,51.15
2022-07-30T21:39:43.188Z,50.70
2022-07-30T21:42:09.925Z,51.49
2022-07-30T21:44:37.684Z,50.96
2022-07-30T21:47:10.483Z,50.79
2022-07-30T21:49:39.856Z,50.73
2022-07-30T21:52:09.076Z,49.72
2022-07-30T21:57:34.473Z,50.68
2022-07-30T22:00:07.176Z,51.97
2022-07-30T22:02:38.327Z,53.37
2022-07-30T22:05:20.145Z,52.88
2022-07-30T22:07:48.824Z,56.72
2022-07-30T22:10:15.748Z,56.76
2022-07-30T22:12:48.772Z,56.19
2022-07-30T22:15:15.615Z,57.07
2022-07-30T22:17:58.639Z,59.12
2022-07-30T22:20:32.031Z,59.24
2022-07-30T22:23:01.765Z,60.86
2022-07-30T22:25:41.586Z,58.67
2022-07-30T22:28:14.338Z,57.40
2022-07-30T22:30:48.663Z,58.76
2022-07-30T22:33:19.753Z,60.45
2022-07-30T22:35:49.659Z,61.70
2022-07-30T22:38:17.385Z,60.87
2022-07-30T22:40:46.634Z,59.10
2022-07-30T22:43:15.988Z,60.11
2022-07-30T22:45:48.594Z,61.05
2022-07-30T22:48:16.777Z,59.88
2022-07-30T22:50:43.481Z,60.39
2022-07-30T22:53:23.757Z,60.25
2022-07-30T22:55:58.758Z,62.27
2022-07-30T22:58:26.638Z,62.67
2022-07-30T23:00:53.809Z,66.21
2022-07-30T23:03:21.224Z,64.54
2022-07-30T23:05:55.825Z,63.95
2022-07-30T23:08:29.715Z,62.43
2022-07-30T23:10:59.572Z,61.26
2022-07-30T23:12:31.225Z,51.00
2022-07-30T23:13:27.413Z,65.19
2022-07-30T23:15:54.216Z,64.57
2022-07-30T23:18:20.991Z,67.16
2022-07-30T23:20:47.776Z,65.49
2022-07-30T23:23:15.089Z,66.45
2022-07-30T23:25:41.857Z,67.41
2022-07-30T23:28:08.638Z,64.39
2022-07-30T23:30:35.875Z,68.73
2022-07-30T23:33:02.841Z,68.11
2022-07-30T23:35:30.308Z,69.65
2022-07-30T23:37:57.384Z,69.29
2022-07-30T23:40:24.161Z,72.49
2022-07-30T23:42:51.875Z,73.92
2022-07-30T23:45:18.985Z,74.50
2022-07-30T23:48:01.994Z,75.04
2022-07-30T23:50:31.184Z,71.94
2022-07-30T23:52:57.865Z,74.49
2022-07-30T23:55:24.698Z,75.10
2022-07-30T23:57:51.657Z,78.93
